Time;durP1;ratioP1;P1;durP2;ratioP2;P2;SDS_P1;SDS_P2;PMS_P1;PMS_P2;Temp;Humidity;BMP_temperature;BMP_pressure;BME280_temperature;BME280_humidity;BME280_pressure;Samples;Min_cycle;Max_cycle;Signal;HPM_P1;HPM_P2
2023/12/28 00:02:11;;;;;;;0.30;0.30;;;;;;;2.35;86.80;98077.66;4967349;28;20089;-60
2023/12/28 00:04:38;;;;;;;0.30;0.30;;;;;;;2.23;88.06;98090.94;4981543;28;20134;-61
2023/12/28 00:07:04;;;;;;;0.38;0.38;;;;;;;2.36;86.78;98101.16;4966596;28;20081;-59
2023/12/28 00:09:31;;;;;;;0.30;0.30;;;;;;;2.22;86.29;98078.34;4966363;28;20537;-59
2023/12/28 00:11:59;;;;;;;0.40;0.40;;;;;;;2.25;86.49;98116.03;4964990;28;20137;-60
2023/12/28 00:14:25;;;;;;;0.40;0.40;;;;;;;2.10;86.22;98091.63;4966715;28;20070;-60
2023/12/28 00:16:52;;;;;;;0.30;0.30;;;;;;;2.09;86.17;98084.50;4966938;28;20061;-60
2023/12/28 00:19:20;;;;;;;0.30;0.30;;;;;;;2.28;86.31;98120.91;4966828;28;20504;-59
2023/12/28 00:21:48;;;;;;;0.30;0.30;;;;;;;2.33;86.73;98115.41;4966981;28;20054;-61
2023/12/28 00:24:16;;;;;;;0.40;0.40;;;;;;;2.46;86.82;98128.38;4981286;28;20069;-60
2023/12/28 00:26:43;;;;;;;0.32;0.32;;;;;;;2.49;86.84;98133.25;4966167;28;20509;-60
2023/12/28 00:29:10;;;;;;;0.30;0.30;;;;;;;2.58;86.27;98137.78;4966886;28;20230;-63
2023/12/28 00:31:37;;;;;;;0.40;0.40;;;;;;;2.54;86.50;98127.72;4981016;28;20062;-60
2023/12/28 00:34:04;;;;;;;0.40;0.40;;;;;;;2.55;86.87;98123.88;4966546;28;20051;-59
2023/12/28 00:36:31;;;;;;;0.30;0.30;;;;;;;2.12;86.55;98040.25;4973674;28;20054;-59
2023/12/28 00:38:58;;;;;;;0.40;0.40;;;;;;;2.28;86.12;98093.59;4985554;28;20089;-60
2023/12/28 00:41:24;;;;;;;0.40;0.40;;;;;;;2.01;86.69;98061.38;4985154;28;20505;-61
2023/12/28 00:43:51;;;;;;;0.40;0.40;;;;;;;1.52;86.67;97976.16;4985550;28;20046;-62
2023/12/28 00:46:18;;;;;;;0.40;0.40;;;;;;;2.41;86.16;98115.59;4985639;28;20525;-60
2023/12/28 00:48:45;;;;;;;0.38;0.38;;;;;;;2.60;86.10;98130.13;5000140;28;20452;-62
2023/12/28 00:51:12;;;;;;;0.40;0.40;;;;;;;2.22;86.16;98084.66;4985072;28;20109;-61
2023/12/28 00:53:39;;;;;;;0.40;0.40;;;;;;;2.55;86.26;98137.56;4984114;28;20594;-61
2023/12/28 00:56:05;;;;;;;0.40;0.40;;;;;;;1.23;85.84;97913.44;4985696;28;20054;-61
2023/12/28 00:58:32;;;;;;;0.30;0.30;;;;;;;2.55;85.84;98145.75;4985444;28;20065;-62
2023/12/28 01:00:59;;;;;;;0.40;0.40;;;;;;;2.36;84.60;98123.03;4983539;28;20513;-61
2023/12/28 01:03:26;;;;;;;0.40;0.40;;;;;;;2.42;84.52;98154.69;4985603;28;20133;-60
2023/12/28 01:05:53;;;;;;;0.40;0.40;;;;;;;2.40;85.24;98156.88;4984927;28;20065;-62
2023/12/28 01:08:20;;;;;;;0.30;0.30;;;;;;;1.73;85.16;98081.34;5000076;28;20073;-62
2023/12/28 01:10:47;;;;;;;0.47;0.47;;;;;;;1.73;85.79;98075.91;4996938;28;20051;-62
2023/12/28 01:13:14;;;;;;;0.40;0.40;;;;;;;2.32;85.38;98160.25;4965971;28;20580;-61
2023/12/28 01:15:41;;;;;;;0.40;0.40;;;;;;;2.34;85.40;98147.13;4980520;28;20058;-61
2023/12/28 01:18:07;;;;;;;0.30;0.30;;;;;;;1.88;85.76;98088.59;4965775;28;20054;-61
2023/12/28 01:20:35;;;;;;;0.40;0.40;;;;;;;2.43;85.06;98148.09;4965364;28;20494;-62
2023/12/28 01:23:02;;;;;;;0.40;0.40;;;;;;;2.23;85.86;98110.06;4979802;28;20050;-61
2023/12/28 01:25:29;;;;;;;0.40;0.40;;;;;;;2.02;86.06;98078.59;4980251;28;20057;-62
2023/12/28 01:27:55;;;;;;;0.40;0.40;;;;;;;2.51;86.91;98144.72;4965536;28;20046;-65
2023/12/28 01:30:22;;;;;;;0.40;0.40;;;;;;;2.60;85.98;98142.97;4965560;28;20077;-64
2023/12/28 01:32:49;;;;;;;0.30;0.30;;;;;;;2.07;84.88;98125.00;4965504;28;20051;-61
2023/12/28 01:35:16;;;;;;;0.40;0.40;;;;;;;2.47;85.47;98151.88;4965462;28;20466;-61
2023/12/28 01:37:43;;;;;;;0.40;0.40;;;;;;;2.38;84.25;98115.34;4994438;28;20130;-63
2023/12/28 01:40:10;;;;;;;0.40;0.40;;;;;;;2.51;83.80;98152.94;4984642;28;20132;-61
2023/12/28 01:42:37;;;;;;;0.38;0.38;;;;;;;2.40;84.47;98141.28;4984574;28;20413;-62
2023/12/28 01:45:05;;;;;;;0.40;0.40;;;;;;;1.93;84.76;98099.47;4984668;28;20062;-61
2023/12/28 01:47:31;;;;;;;0.40;0.40;;;;;;;2.12;85.40;98144.09;4957403;28;20681;-65
2023/12/28 01:50:00;;;;;;;0.40;0.40;;;;;;;2.11;84.88;98132.31;4984680;28;20054;-61
2023/12/28 01:52:28;;;;;;;0.30;0.30;;;;;;;2.13;85.81;98142.97;4984793;28;20050;-62
2023/12/28 01:54:55;;;;;;;0.40;0.40;;;;;;;2.07;85.94;98152.31;4984732;28;20077;-64
2023/12/28 01:57:22;;;;;;;0.40;0.40;;;;;;;2.07;85.73;98146.84;4984701;28;20489;-63
2023/12/28 01:59:49;;;;;;;0.30;0.30;;;;;;;2.01;86.18;98165.22;4969872;28;20069;-63
2023/12/28 02:02:16;;;;;;;0.32;0.32;;;;;;;2.13;86.40;98153.91;4985000;28;20066;-61
2023/12/28 02:04:45;;;;;;;0.30;0.30;;;;;;;2.19;87.15;98147.25;5003491;28;20134;-63
2023/12/28 02:07:13;;;;;;;0.30;0.30;;;;;;;2.19;87.65;98155.47;4970778;28;20140;-62
2023/12/28 02:09:39;;;;;;;0.40;0.40;;;;;;;2.07;87.25;98135.94;4987233;28;20082;-60
2023/12/28 02:12:07;;;;;;;0.32;0.32;;;;;;;2.28;87.69;98145.53;4988909;28;20519;-61
2023/12/28 02:14:34;;;;;;;0.30;0.30;;;;;;;2.30;87.33;98140.59;5003168;28;20060;-60
2023/12/28 02:17:21;;;;;;;0.40;0.40;;;;;;;2.16;87.86;98117.78;4988701;28;20080;-61
2023/12/28 02:19:55;;;;;;;0.32;0.32;;;;;;;2.18;87.62;98123.78;5003408;28;20059;-60
2023/12/28 02:22:25;;;;;;;0.40;0.40;;;;;;;1.47;87.35;98067.13;4988491;28;20062;-61
2023/12/28 02:25:08;;;;;;;0.32;0.32;;;;;;;2.36;86.59;98140.25;4987049;28;20061;-61
2023/12/28 02:27:38;;;;;;;0.40;0.40;;;;;;;2.30;86.76;98166.00;4987895;28;20414;-61
2023/12/28 02:30:06;;;;;;;0.40;0.40;;;;;;;2.10;86.93;98135.34;5002830;28;20068;-61
2023/12/28 02:32:58;;;;;;;0.40;0.40;;;;;;;2.10;86.78;98157.22;4987849;28;20058;-63
2023/12/28 02:35:42;;;;;;;0.40;0.40;;;;;;;1.89;87.47;98153.03;4988201;28;20046;-62
2023/12/28 02:38:13;;;;;;;;;;;;;;;2.00;86.93;98158.13;4988250;28;20070;-64
2023/12/28 02:40:41;;;;;;;0.30;0.30;;;;;;;1.66;88.27;98132.75;4988175;28;19925;-64
2023/12/28 02:43:09;;;;;;;0.40;0.40;;;;;;;1.83;88.27;98162.38;4986343;28;20046;-61
2023/12/28 02:45:37;;;;;;;0.40;0.40;;;;;;;1.49;86.32;98092.22;4987186;28;20554;-61
2023/12/28 02:48:05;;;;;;;0.30;0.30;;;;;;;1.78;86.71;98176.91;4986439;28;20050;-62
2023/12/28 02:50:33;;;;;;;0.30;0.30;;;;;;;1.86;86.43;98156.34;4987568;28;20050;-63
2023/12/28 02:53:00;;;;;;;0.30;0.30;;;;;;;1.79;86.57;98155.88;4986119;28;20085;-62
2023/12/28 02:55:27;;;;;;;0.40;0.40;;;;;;;1.79;87.52;98161.34;4987485;28;20048;-61
2023/12/28 02:57:56;;;;;;;0.32;0.32;;;;;;;1.78;87.65;98155.06;4987683;28;20046;-61
2023/12/28 03:00:23;;;;;;;0.40;0.40;;;;;;;1.76;88.55;98148.22;4985978;28;20213;-61
2023/12/28 03:02:50;;;;;;;0.38;0.38;;;;;;;1.77;88.78;98137.03;4987424;28;20513;-61
2023/12/28 03:05:17;;;;;;;0.40;0.40;;;;;;;1.87;88.75;98144.31;4987416;28;20112;-62
2023/12/28 03:07:45;;;;;;;0.40;0.40;;;;;;;1.92;88.80;98144.25;4987166;28;20690;-61
2023/12/28 03:10:12;;;;;;;0.40;0.40;;;;;;;1.58;88.62;98093.22;4987523;28;20433;-60
2023/12/28 03:12:41;;;;;;;0.32;0.32;;;;;;;2.01;88.49;98145.28;4987244;28;20058;-61
2023/12/28 03:15:08;;;;;;;0.30;0.30;;;;;;;1.23;89.20;98017.13;4985874;28;20061;-61
2023/12/28 03:17:36;;;;;;;0.40;0.40;;;;;;;1.24;89.08;97991.47;4987201;28;20058;-61
2023/12/28 03:20:05;;;;;;;0.30;0.30;;;;;;;2.14;88.72;98141.84;4987136;28;20051;-60
2023/12/28 03:22:32;;;;;;;0.40;0.40;;;;;;;1.99;88.08;98144.75;4987055;28;20490;-62
2023/12/28 03:24:59;;;;;;;0.40;0.40;;;;;;;1.90;88.23;98130.88;5001887;28;20056;-59
2023/12/28 03:27:26;;;;;;;0.30;0.30;;;;;;;1.96;87.98;98112.53;4987217;28;20058;-60
2023/12/28 03:29:53;;;;;;;0.40;0.40;;;;;;;2.15;87.52;98144.28;4986658;28;20517;-60
2023/12/28 03:32:19;;;;;;;0.40;0.40;;;;;;;2.00;88.28;98140.91;4987111;28;20054;-62
2023/12/28 03:34:46;;;;;;;0.30;0.30;;;;;;;2.01;88.23;98148.81;5001824;28;20050;-61
2023/12/28 03:37:13;;;;;;;0.40;0.40;;;;;;;1.30;87.84;98031.25;4987241;28;20059;-61
2023/12/28 03:39:40;;;;;;;0.40;0.40;;;;;;;1.88;88.79;98148.69;4986818;28;20054;-61
2023/12/28 03:42:07;;;;;;;0.40;0.40;;;;;;;1.58;89.49;98108.00;4986939;28;20065;-60
2023/12/28 03:44:34;;;;;;;0.30;0.30;;;;;;;1.67;91.03;98141.78;4986837;28;20108;-62
2023/12/28 03:47:00;;;;;;;0.30;0.30;;;;;;;1.80;90.30;98146.56;5001138;28;20524;-60
2023/12/28 03:49:27;;;;;;;0.30;0.30;;;;;;;1.86;90.02;98146.25;4986394;28;20196;-61
2023/12/28 03:51:54;;;;;;;0.30;0.30;;;;;;;1.91;89.67;98148.09;4986352;28;20505;-62
2023/12/28 03:54:21;;;;;;;0.40;0.40;;;;;;;-0.49;88.13;97789.84;4986909;28;20116;-64
2023/12/28 03:56:48;;;;;;;0.30;0.30;;;;;;;1.60;88.48;98142.09;4986788;28;20065;-60
2023/12/28 03:59:15;;;;;;;0.30;0.30;;;;;;;1.62;88.43;98150.00;4986616;28;20145;-61
2023/12/28 04:01:42;;;;;;;0.30;0.30;;;;;;;1.77;88.78;98152.63;4972763;28;20477;-60
2023/12/28 04:04:10;;;;;;;0.30;0.30;;;;;;;1.13;88.09;98044.50;4966901;28;20055;-63
2023/12/28 04:06:38;;;;;;;0.40;0.40;;;;;;;1.68;88.27;98143.38;4966527;28;20078;-62
2023/12/28 04:09:05;;;;;;;0.30;0.30;;;;;;;1.69;88.18;98162.25;4967059;28;20074;-61
2023/12/28 04:11:32;;;;;;;0.30;0.30;;;;;;;1.10;87.54;98047.81;4981260;28;20443;-60
2023/12/28 04:13:59;;;;;;;0.40;0.40;;;;;;;1.31;88.07;98106.56;4966959;28;20046;-61
2023/12/28 04:16:25;;;;;;;0.40;0.40;;;;;;;1.66;88.10;98167.47;4966835;28;20057;-62
2023/12/28 04:18:52;;;;;;;0.30;0.30;;;;;;;1.72;88.64;98161.66;4966617;28;20528;-63
2023/12/28 04:21:19;;;;;;;0.35;0.35;;;;;;;1.52;88.89;98121.69;4981197;28;20053;-62
2023/12/28 04:23:46;;;;;;;0.30;0.30;;;;;;;1.30;89.06;98088.56;4966880;28;20532;-61
2023/12/28 04:26:13;;;;;;;0.40;0.40;;;;;;;1.71;88.89;98148.31;4966242;28;20105;-61
2023/12/28 04:28:39;;;;;;;0.30;0.30;;;;;;;1.78;89.05;98151.50;4966685;28;20054;-60
2023/12/28 04:31:06;;;;;;;0.40;0.40;;;;;;;1.78;88.78;98154.22;4966568;28;20050;-61
2023/12/28 04:33:34;;;;;;;0.30;0.30;;;;;;;1.66;89.91;98162.00;4981114;28;20311;-61
2023/12/28 04:36:05;;;;;;;0.30;0.30;;;;;;;1.68;90.42;98155.13;4966234;28;20050;-61
2023/12/28 04:38:32;;;;;;;0.35;0.35;;;;;;;1.67;91.24;98158.97;4986047;28;20086;-63
2023/12/28 04:41:00;;;;;;;0.40;0.40;;;;;;;1.67;91.14;98147.22;4985984;28;20579;-60
2023/12/28 04:43:27;;;;;;;0.30;0.30;;;;;;;1.65;90.80;98150.25;4985806;28;20049;-61
2023/12/28 04:45:54;;;;;;;0.40;0.40;;;;;;;1.64;89.68;98136.88;4985105;28;20505;-63
2023/12/28 04:48:23;;;;;;;0.30;0.30;;;;;;;1.83;89.57;98156.91;4985507;28;20081;-63
2023/12/28 04:50:52;;;;;;;0.30;0.30;;;;;;;1.75;90.18;98155.63;4985594;28;20056;-60
2023/12/28 04:53:19;;;;;;;0.30;0.30;;;;;;;1.28;90.47;98079.84;4985069;28;20050;-61
2023/12/28 04:55:46;;;;;;;0.30;0.30;;;;;;;1.75;90.63;98154.81;4985746;28;20092;-61
2023/12/28 04:58:13;;;;;;;0.40;0.40;;;;;;;0.68;90.41;98058.47;4985163;28;20061;-61
2023/12/28 05:00:40;;;;;;;0.40;0.40;;;;;;;1.78;90.41;98162.44;5000323;28;20141;-61
2023/12/28 05:03:07;;;;;;;0.30;0.30;;;;;;;1.35;89.81;98107.63;4985098;28;20146;-61
2023/12/28 05:05:34;;;;;;;0.30;0.30;;;;;;;1.60;89.04;98144.81;4985137;28;20788;-61
2023/12/28 05:08:01;;;;;;;0.35;0.35;;;;;;;1.84;87.44;98158.53;4984954;28;20100;-63
2023/12/28 05:10:28;;;;;;;0.40;0.40;;;;;;;-0.39;87.65;97808.00;4985348;28;20050;-60
2023/12/28 05:12:55;;;;;;;0.35;0.35;;;;;;;1.71;88.66;98159.22;4983678;28;20046;-60
2023/12/28 05:15:28;;;;;;;0.40;0.40;;;;;;;1.41;89.25;98117.41;4985384;28;20046;-61
2023/12/28 05:17:55;;;;;;;0.30;0.30;;;;;;;1.62;91.92;98166.38;4984890;28;20133;-63
2023/12/28 05:20:23;;;;;;;0.38;0.38;;;;;;;1.73;92.28;98167.94;4985384;28;20054;-61
2023/12/28 05:22:50;;;;;;;0.32;0.32;;;;;;;1.79;92.21;98170.34;4999894;28;20054;-61
2023/12/28 05:25:16;;;;;;;0.40;0.40;;;;;;;1.82;92.79;98161.56;4984940;28;20137;-61
2023/12/28 05:27:43;;;;;;;0.30;0.30;;;;;;;1.68;92.59;98148.84;4984713;28;20417;-60
2023/12/28 05:30:11;;;;;;;0.32;0.32;;;;;;;1.33;92.97;98078.97;4984884;28;20062;-61
2023/12/28 05:32:39;;;;;;;0.40;0.40;;;;;;;1.93;92.29;98167.78;4999687;28;20047;-61
2023/12/28 05:35:06;;;;;;;0.30;0.30;;;;;;;1.58;91.80;98105.25;4984520;28;20056;-63
2023/12/28 05:37:33;;;;;;;0.30;0.30;;;;;;;1.83;91.95;98165.13;4984047;28;20054;-61
2023/12/28 05:40:00;;;;;;;0.40;0.40;;;;;;;1.90;92.23;98160.16;4984914;28;20066;-62
2023/12/28 05:42:27;;;;;;;0.30;0.30;;;;;;;1.90;91.72;98162.88;4999571;28;20092;-60
2023/12/28 05:44:53;;;;;;;0.30;0.30;;;;;;;1.83;91.15;98151.47;4984684;28;20127;-63
2023/12/28 05:47:20;;;;;;;0.30;0.30;;;;;;;1.93;90.82;98152.16;4984405;28;20064;-60
2023/12/28 05:49:47;;;;;;;0.30;0.30;;;;;;;1.93;90.30;98157.63;4984397;28;20428;-61
2023/12/28 05:52:16;;;;;;;0.40;0.40;;;;;;;1.96;89.76;98167.19;4984309;28;20584;-61
2023/12/28 05:54:43;;;;;;;0.30;0.30;;;;;;;1.93;89.67;98156.84;4984712;28;20057;-62
2023/12/28 05:57:10;;;;;;;0.35;0.35;;;;;;;1.54;89.14;98100.38;4983935;28;20082;-61
2023/12/28 05:59:39;;;;;;;0.30;0.30;;;;;;;2.02;89.09;98172.31;4983769;28;20065;-63
2023/12/28 06:02:06;;;;;;;0.38;0.38;;;;;;;1.86;88.87;98153.63;4983336;28;20058;-62
2023/12/28 06:04:33;;;;;;;0.40;0.40;;;;;;;1.99;88.85;98166.59;4983869;28;20050;-60
2023/12/28 06:07:03;;;;;;;0.40;0.40;;;;;;;2.04;89.17;98169.31;4981803;28;20062;-63
2023/12/28 06:09:30;;;;;;;0.30;0.30;;;;;;;1.97;89.73;98174.28;4982048;28;20054;-60
2023/12/28 06:11:56;;;;;;;0.30;0.30;;;;;;;2.04;89.18;98152.91;4984081;28;20103;-61
2023/12/28 06:14:23;;;;;;;0.40;0.40;;;;;;;2.18;89.31;98172.97;4984937;28;20062;-61
2023/12/28 06:16:50;;;;;;;0.30;0.30;;;;;;;2.23;88.67;98167.47;4985121;28;20461;-61
2023/12/28 06:19:17;;;;;;;0.30;0.30;;;;;;;1.65;88.86;98070.22;4984608;28;20129;-60
2023/12/28 06:21:44;;;;;;;0.35;0.35;;;;;;;2.31;88.52;98205.09;4984476;28;20085;-61
2023/12/28 06:24:10;;;;;;;0.40;0.40;;;;;;;2.38;87.11;98198.19;4984259;28;20084;-62
2023/12/28 06:26:44;;;;;;;0.40;0.40;;;;;;;2.27;87.70;98179.44;4984564;28;20070;-61
2023/12/28 06:29:12;;;;;;;0.40;0.40;;;;;;;2.40;87.46;98184.22;4984590;28;20176;-63
2023/12/28 06:31:38;;;;;;;0.40;0.40;;;;;;;2.47;87.97;98184.69;4984086;28;20157;-60
2023/12/28 06:34:06;;;;;;;0.40;0.40;;;;;;;2.62;87.41;98190.81;4984602;28;20058;-62
2023/12/28 06:36:33;;;;;;;0.40;0.40;;;;;;;2.65;87.57;98170.25;4984322;28;20073;-61
2023/12/28 06:39:00;;;;;;;0.40;0.40;;;;;;;2.82;86.26;98195.22;4982825;28;20058;-61
2023/12/28 06:41:27;;;;;;;0.35;0.35;;;;;;;2.74;86.16;98169.31;4999012;28;20418;-60
2023/12/28 06:43:54;;;;;;;0.40;0.40;;;;;;;2.87;86.08;98186.94;4999106;28;20050;-61
2023/12/28 06:46:20;;;;;;;0.40;0.40;;;;;;;3.06;86.68;98187.78;4998585;28;20437;-64
2023/12/28 06:48:47;;;;;;;0.40;0.40;;;;;;;3.19;86.58;98187.06;4985169;28;20061;-61
2023/12/28 06:51:19;;;;;;;0.38;0.38;;;;;;;3.32;86.07;98191.78;4987295;28;20050;-61
2023/12/28 06:53:46;;;;;;;0.40;0.40;;;;;;;3.12;83.58;98175.66;4987876;28;20448;-62
2023/12/28 06:56:13;;;;;;;0.40;0.40;;;;;;;3.43;84.16;98193.28;4985885;28;20077;-61
2023/12/28 06:58:41;;;;;;;0.40;0.40;;;;;;;3.52;83.99;98175.09;4987463;28;20592;-63
2023/12/28 07:01:08;;;;;;;0.40;0.40;;;;;;;3.57;81.92;98133.91;4986341;28;20058;-60
2023/12/28 07:03:35;;;;;;;0.40;0.40;;;;;;;3.55;82.88;98114.22;4979114;28;20050;-60
2023/12/28 07:06:03;;;;;;;0.40;0.40;;;;;;;4.02;81.30;98157.78;4983999;28;20235;-60
2023/12/28 07:08:30;;;;;;;0.40;0.40;;;;;;;3.96;81.19;98158.19;4985364;28;20062;-62
2023/12/28 07:11:02;;;;;;;0.40;0.40;;;;;;;4.49;80.93;98179.41;4976910;28;20050;-67
2023/12/28 07:13:29;;;;;;;0.40;0.40;;;;;;;4.25;81.26;98101.97;4968742;28;20057;-62
2023/12/28 07:15:56;;;;;;;0.40;0.40;;;;;;;2.79;81.17;97840.16;4986253;28;20402;-64
2023/12/28 07:18:27;;;;;;;0.50;0.50;;;;;;;4.35;81.20;98085.31;4985414;28;20128;-68
2023/12/28 07:20:55;;;;;;;0.40;0.40;;;;;;;5.36;80.93;98165.53;4984878;28;20054;-63
2023/12/28 07:23:22;;;;;;;0.50;0.50;;;;;;;3.44;79.60;97838.91;4978869;28;20060;-66
2023/12/28 07:25:49;;;;;;;0.50;0.50;;;;;;;5.80;79.34;98165.56;4986108;28;20049;-63
2023/12/28 07:28:15;;;;;;;0.43;0.43;;;;;;;5.86;78.04;98147.84;4988197;28;20054;-60
2023/12/28 07:30:42;;;;;;;0.47;0.47;;;;;;;5.36;76.97;98072.13;5001538;28;20137;-62
2023/12/28 07:33:09;;;;;;;0.50;0.50;;;;;;;6.15;77.11;98131.69;4983721;28;20065;-59
2023/12/28 07:35:38;;;;;;;0.50;0.50;;;;;;;6.56;76.43;98168.00;5006531;28;20111;-67
2023/12/28 07:38:05;;;;;;;0.50;0.50;;;;;;;6.20;75.57;98087.53;4985323;28;20054;-67
2023/12/28 07:40:32;;;;;;;0.55;0.55;;;;;;;6.93;76.20;98155.66;4984837;28;20168;-66
2023/12/28 07:42:58;;;;;;;0.60;0.60;;;;;;;6.77;74.91;98114.00;4982351;28;20137;-66
2023/12/28 07:45:25;;;;;;;0.60;0.60;;;;;;;6.49;74.15;98030.03;4986130;28;20064;-60
2023/12/28 07:47:52;;;;;;;0.60;0.60;;;;;;;4.30;72.55;97715.22;4984066;28;20543;-67
2023/12/28 07:50:20;;;;;;;0.60;0.60;;;;;;;7.64;72.56;98155.97;4986300;28;20042;-61
2023/12/28 07:52:48;;;;;;;0.63;0.63;;;;;;;7.76;71.04;98174.63;4985310;28;20418;-62
2023/12/28 07:55:16;;;;;;;0.60;0.60;;;;;;;7.61;71.23;98129.03;4986507;28;20057;-65
2023/12/28 07:57:43;;;;;;;0.60;0.60;;;;;;;7.36;71.25;98058.19;4985902;28;20096;-68
2023/12/28 08:00:11;;;;;;;0.60;0.60;;;;;;;8.16;69.90;98177.97;4984498;28;20050;-73
2023/12/28 08:02:38;;;;;;;0.65;0.65;;;;;;;8.06;68.89;98128.66;4985871;28;20217;-68
2023/12/28 08:05:05;;;;;;;0.60;0.60;;;;;;;8.44;67.95;98151.66;4985744;28;20054;-64
2023/12/28 08:07:32;;;;;;;0.60;0.60;;;;;;;8.44;66.59;98135.09;4985450;28;20525;-68
2023/12/28 08:10:00;;;;;;;0.75;0.75;;;;;;;7.95;66.55;98110.84;4986029;28;20500;-65
2023/12/28 08:12:27;;;;;;;0.70;0.70;;;;;;;8.89;66.02;98161.06;4987571;28;20060;-65
2023/12/28 08:14:55;;;;;;;0.70;0.70;;;;;;;8.19;65.64;98028.31;4984640;28;20046;-61
2023/12/28 08:17:23;;;;;;;0.70;0.70;;;;;;;8.85;66.94;98110.38;4999357;28;20165;-66
2023/12/28 08:19:50;;;;;;;0.70;0.70;;;;;;;8.64;66.92;98057.03;4985505;28;20069;-62
2023/12/28 08:22:18;;;;;;;0.70;0.70;;;;;;;9.03;68.29;98143.09;4985027;28;20054;-68
2023/12/28 08:24:45;;;;;;;0.73;0.73;;;;;;;9.24;68.48;98170.81;4983928;28;20046;-66
2023/12/28 08:27:13;;;;;;;0.75;0.75;;;;;;;9.09;68.73;98163.88;4979395;28;20541;-64
2023/12/28 08:29:41;;;;;;;0.70;0.70;;;;;;;9.11;69.54;98160.78;4985007;28;20076;-61
2023/12/28 08:32:10;;;;;;;0.80;0.80;;;;;;;9.13;70.16;98164.03;4983799;28;20156;-63
2023/12/28 08:34:37;;;;;;;0.70;0.70;;;;;;;9.28;69.75;98160.69;4988129;28;20414;-60
2023/12/28 08:37:05;;;;;;;0.70;0.70;;;;;;;8.90;68.28;98088.06;4985234;28;20137;-63
2023/12/28 08:39:32;;;;;;;0.80;0.80;;;;;;;9.09;66.75;98163.06;4980774;28;20121;-65
2023/12/28 08:41:59;;;;;;;0.70;0.70;;;;;;;8.57;66.97;98084.34;4984918;28;20066;-65
2023/12/28 08:44:26;;;;;;;0.70;0.70;;;;;;;9.25;66.63;98155.81;4984637;28;20058;-60
2023/12/28 08:46:52;;;;;;;0.70;0.70;;;;;;;9.18;66.22;98105.78;4984007;28;20050;-67
2023/12/28 08:49:19;;;;;;;0.70;0.70;;;;;;;9.46;65.79;98140.06;4985202;28;20046;-62
2023/12/28 08:51:46;;;;;;;0.73;0.73;;;;;;;8.93;64.92;98007.28;4982547;28;20064;-68
2023/12/28 08:54:14;;;;;;;0.80;0.80;;;;;;;9.56;63.88;98084.38;4981257;28;20054;-62
2023/12/28 08:56:41;;;;;;;0.80;0.80;;;;;;;10.17;63.09;98138.03;4979849;28;20054;-62
2023/12/28 08:59:07;;;;;;;0.80;0.80;;;;;;;9.86;62.02;98044.38;4972827;28;20046;-63
2023/12/28 09:01:34;;;;;;;0.90;0.90;;;;;;;9.65;61.19;98007.63;4984614;28;20056;-67
2023/12/28 09:04:01;;;;;;;0.82;0.82;;;;;;;9.03;60.98;97910.16;4981487;28;20497;-69
2023/12/28 09:06:28;;;;;;;0.90;0.90;;;;;;;10.85;61.17;98122.56;4984022;28;20058;-66
2023/12/28 09:08:56;;;;;;;0.90;0.90;;;;;;;10.87;60.19;98084.22;4946208;28;20482;-66
2023/12/28 09:11:23;;;;;;;0.90;0.90;;;;;;;10.85;59.69;98042.19;4943813;28;20139;-62
2023/12/28 09:13:50;;;;;;;0.90;0.90;;;;;;;11.45;58.31;98117.81;4944884;29;20066;-61
2023/12/28 09:16:17;;;;;;;0.90;0.90;;;;;;;11.16;57.92;98081.22;4954914;28;20519;-64
2023/12/28 09:18:46;;;;;;;1.00;1.00;;;;;;;11.82;56.89;98104.66;4945020;28;20047;-60
2023/12/28 09:21:13;;;;;;;1.00;1.00;;;;;;;11.73;55.96;98056.81;4942411;28;20377;-62
2023/12/28 09:23:41;;;;;;;0.90;0.90;;;;;;;11.97;56.35;98090.03;4947213;28;20676;-69
2023/12/28 09:26:08;;;;;;;0.93;0.93;;;;;;;11.87;56.09;98026.69;4942331;28;20450;-70
2023/12/28 09:28:35;;;;;;;1.10;1.10;;;;;;;12.56;53.97;98085.31;4959781;28;20062;-61
2023/12/28 09:31:03;;;;;;;0.95;0.95;;;;;;;12.87;52.75;98068.59;4945622;28;20138;-60
2023/12/28 09:33:31;;;;;;;1.00;1.00;;;;;;;12.83;51.85;98062.16;4946240;28;20498;-62
2023/12/28 09:35:58;;;;;;;1.00;1.00;;;;;;;12.33;51.49;97998.13;4956328;28;20055;-62
2023/12/28 09:38:26;;;;;;;1.10;1.10;;;;;;;12.89;51.43;98065.47;4946349;28;20549;-71
2023/12/28 09:40:54;;;;;;;1.17;1.17;;;;;;;13.15;50.65;98057.41;4945154;28;20055;-63
2023/12/28 09:43:26;;;;;;;1.10;1.10;;;;;;;13.38;51.31;98050.78;4960380;28;20545;-62
2023/12/28 09:45:57;;;;;;;1.33;1.33;;;;;;;13.04;50.66;97954.22;4945850;28;20448;-60
2023/12/28 09:48:23;;;;;;;1.15;1.15;;;;;;;11.68;50.52;97762.88;4946145;28;20196;-62
2023/12/28 09:50:55;;;;;;;1.15;1.15;;;;;;;12.90;49.37;97901.03;4945189;28;20156;-71
2023/12/28 09:53:25;;;;;;;1.27;1.27;;;;;;;14.07;49.24;98037.88;4945236;29;20256;-60
2023/12/28 09:55:53;;;;;;;1.30;1.30;;;;;;;13.42;48.62;97926.41;4941272;29;20114;-71
2023/12/28 09:58:21;;;;;;;1.20;1.20;;;;;;;13.91;48.48;97985.03;4941507;28;20055;-62
2023/12/28 10:00:50;;;;;;;1.30;1.30;;;;;;;14.25;48.08;98017.56;4944816;28;20055;-61
2023/12/28 10:03:18;;;;;;;1.30;1.30;;;;;;;14.35;48.70;98021.72;4940403;28;20481;-71
2023/12/28 10:05:46;;;;;;;1.20;1.20;;;;;;;14.53;48.83;98012.47;4944300;29;20077;-69
2023/12/28 10:08:15;;;;;;;1.20;1.20;;;;;;;14.72;48.43;98003.22;4987318;28;20106;-62
2023/12/28 10:10:50;;;;;;;1.13;1.13;;;;;;;14.79;47.25;98000.56;4974156;28;20082;-78
2023/12/28 10:13:18;;;;;;;1.20;1.20;;;;;;;14.54;46.88;97957.53;4970485;28;20046;-62
2023/12/28 10:15:45;;;;;;;1.20;1.20;;;;;;;14.60;47.18;97930.91;4983324;28;20573;-71
2023/12/28 10:18:12;;;;;;;1.23;1.23;;;;;;;15.09;46.99;97993.03;4982054;28;20058;-62
2023/12/28 10:20:39;;;;;;;1.50;1.50;;;;;;;15.11;46.16;97976.75;4981187;28;20046;-61
2023/12/28 10:23:06;;;;;;;1.10;1.10;;;;;;;14.41;46.21;97964.47;4981323;28;20054;-67
2023/12/28 10:25:35;;;;;;;1.40;1.40;;;;;;;14.77;45.92;97977.78;4986112;28;20454;-69
2023/12/28 10:28:06;;;;;;;1.35;1.35;;;;;;;14.15;46.27;97967.16;4986465;28;20081;-68
2023/12/28 10:30:33;;;;;;;1.38;1.38;;;;;;;13.84;45.95;97873.50;5002315;28;20074;-61
2023/12/28 10:33:00;;;;;;;1.17;1.17;;;;;;;13.31;46.37;97911.47;4988074;28;20064;-62
2023/12/28 10:35:29;;;;;;;1.10;1.10;;;;;;;11.04;47.47;97510.09;4988098;28;20066;-63
2023/12/28 10:38:00;;;;;;;1.30;1.30;;;;;;;14.33;46.82;97957.16;4985706;28;20050;-69
2023/12/28 10:40:27;;;;;;;1.27;1.27;;;;;;;14.52;45.85;97955.09;4987326;28;20449;-69
2023/12/28 10:43:02;;;;;;;1.15;1.15;;;;;;;14.67;46.02;97950.53;4991994;28;20136;-69
2023/12/28 10:45:33;;;;;;;1.20;1.20;;;;;;;14.51;44.69;97991.72;5002787;28;20062;-70
2023/12/28 10:48:11;;;;;;;1.10;1.10;;;;;;;14.37;45.25;97935.75;4968701;28;20529;-70
2023/12/28 10:50:41;;;;;;;1.20;1.20;;;;;;;14.30;44.07;97935.63;4968351;28;20133;-62
2023/12/28 10:53:33;;;;;;;1.38;1.38;;;;;;;14.52;44.37;97918.06;4987757;28;20062;-70
2023/12/28 10:56:16;;;;;;;1.27;1.27;;;;;;;14.65;43.59;97891.56;4987292;28;20092;-71
2023/12/28 10:58:50;;;;;;;1.35;1.35;;;;;;;15.02;42.68;97906.44;5002345;28;20057;-63
2023/12/28 11:01:31;;;;;;;1.20;1.20;;;;;;;14.61;42.95;97873.97;4986411;28;20142;-62
2023/12/28 11:04:08;;;;;;;1.50;1.50;;;;;;;14.49;43.05;97837.94;5002794;28;20578;-70
2023/12/28 11:06:36;;;;;;;1.40;1.40;;;;;;;14.95;42.02;97850.53;4987351;28;20054;-63
2023/12/28 11:09:05;;;;;;;1.40;1.40;;;;;;;15.28;41.44;97855.31;4987971;28;20504;-71
2023/12/28 11:11:37;;;;;;;1.42;1.42;;;;;;;15.26;41.14;97882.81;4987294;28;20050;-72
2023/12/28 11:14:07;;;;;;;1.30;1.30;;;;;;;15.30;41.39;97845.38;4985805;28;20058;-64
2023/12/28 11:16:34;;;;;;;1.20;1.20;;;;;;;14.92;41.23;97835.34;4986393;28;20129;-62
2023/12/28 11:19:02;;;;;;;1.30;1.30;;;;;;;14.78;41.68;97812.03;5018633;28;20046;-71
2023/12/28 11:21:30;;;;;;;1.40;1.40;;;;;;;15.33;41.85;97878.13;4986880;28;20148;-62
2023/12/28 11:23:57;;;;;;;1.40;1.40;;;;;;;14.64;42.07;97811.84;4987178;28;20142;-72
2023/12/28 11:26:24;;;;;;;1.30;1.30;;;;;;;15.06;42.20;97806.84;4986855;28;20450;-71
2023/12/28 11:29:03;;;;;;;1.50;1.50;;;;;;;15.73;42.18;97858.63;4986834;28;20528;-71
2023/12/28 11:31:37;;;;;;;1.40;1.40;;;;;;;15.78;42.10;97852.69;4987054;28;20165;-61
2023/12/28 11:34:06;;;;;;;;;;;;;;;15.86;42.02;97851.59;4987475;28;20563;-62
2023/12/28 11:36:38;;;;;;;1.50;1.50;;;;;;;15.76;41.66;97841.09;4999933;28;19926;-62
2023/12/28 11:39:06;;;;;;;1.35;1.35;;;;;;;15.90;41.79;97846.81;4982818;28;20050;-63
2023/12/28 11:41:36;;;;;;;1.40;1.40;;;;;;;15.82;41.70;97794.84;4979307;28;20054;-68
2023/12/28 11:44:05;;;;;;;1.50;1.50;;;;;;;16.15;41.62;97842.28;4967637;28;20243;-62
2023/12/28 11:46:34;;;;;;;1.70;1.70;;;;;;;16.27;41.42;97844.75;4967338;28;20051;-71